createdAt,value
2018-07-19T00:02:17.803Z,97985.86
2018-07-19T00:04:47.334Z,97988.56
2018-07-19T00:07:17.731Z,97988.54
2018-07-19T00:09:46.391Z,97984.20
2018-07-19T00:12:15.089Z,97977.67
2018-07-19T00:14:46.482Z,97981.44
2018-07-19T00:17:15.060Z,97981.41
2018-07-19T00:19:45.305Z,97982.47
2018-07-19T00:22:13.880Z,97980.27
2018-07-19T00:24:42.454Z,97969.42
2018-07-19T00:27:12.016Z,97977.24
2018-07-19T00:29:40.610Z,97979.38
2018-07-19T00:32:09.924Z,97977.69
2018-07-19T00:34:38.561Z,97985.06
2018-07-19T00:37:07.259Z,97985.56
2018-07-19T00:39:36.790Z,97987.27
2018-07-19T00:42:05.341Z,97985.17
2018-07-19T00:44:34.257Z,97989.41
2018-07-19T00:47:03.175Z,97990.05
2018-07-19T00:49:33.296Z,97992.25
2018-07-19T00:52:02.042Z,97997.13
2018-07-19T00:54:30.606Z,97992.78
2018-07-19T00:56:59.175Z,97989.02
2018-07-19T00:59:27.741Z,97987.36
2018-07-19T01:01:56.518Z,97989.27
2018-07-19T01:04:25.098Z,97986.84
2018-07-19T01:06:53.722Z,97987.92
2018-07-19T01:09:23.170Z,97992.25
2018-07-19T01:11:51.706Z,97993.34
2018-07-19T01:14:21.191Z,97989.52
2018-07-19T01:16:50.026Z,97990.59
2018-07-19T01:19:18.602Z,97993.30
2018-07-19T01:21:47.155Z,97990.55
2018-07-19T01:24:16.577Z,97995.67
2018-07-19T01:26:45.614Z,97989.51
2018-07-19T01:29:14.294Z,97991.74
2018-07-19T01:31:42.809Z,97991.22
2018-07-19T01:34:11.404Z,97990.45
2018-07-19T01:36:39.967Z,97995.54
2018-07-19T01:39:10.146Z,97993.14
2018-07-19T01:41:49.826Z,97992.86
2018-07-19T01:44:18.615Z,97991.75
2018-07-19T01:46:47.570Z,97995.26
2018-07-19T01:49:16.116Z,98000.92
2018-07-19T01:51:44.702Z,97993.88
2018-07-19T01:54:13.271Z,97990.36
2018-07-19T01:56:41.979Z,97992.76
2018-07-19T01:59:10.513Z,97995.51
2018-07-19T02:01:39.029Z,98000.38
2018-07-19T02:04:08.082Z,98001.50
2018-07-19T02:06:36.780Z,98000.15
2018-07-19T02:09:06.966Z,98004.43
2018-07-19T02:11:35.534Z,98015.21
2018-07-19T02:14:04.070Z,98010.63
2018-07-19T02:16:32.887Z,98011.47
2018-07-19T02:19:02.390Z,98002.05
2018-07-19T02:21:30.969Z,98009.59
2018-07-19T02:23:59.561Z,98015.74
2018-07-19T02:26:28.444Z,98020.65
2018-07-19T02:28:56.943Z,98027.13
2018-07-19T02:31:25.813Z,98027.87
2018-07-19T02:33:55.309Z,98018.16
2018-07-19T02:36:24.226Z,98017.61
2018-07-19T02:38:53.324Z,98022.73
2018-07-19T02:41:22.058Z,98028.65
2018-07-19T02:43:51.379Z,98021.63
2018-07-19T02:46:20.192Z,98018.08
2018-07-19T02:48:49.131Z,98017.53
2018-07-19T02:51:17.754Z,98021.09
2018-07-19T02:53:46.306Z,98019.47
2018-07-19T02:56:15.738Z,98024.34
2018-07-19T02:58:44.282Z,98022.20
2018-07-19T03:01:13.051Z,98027.33
2018-07-19T03:03:41.586Z,98027.08
2018-07-19T03:06:10.295Z,98031.65
2018-07-19T03:08:39.253Z,98031.66
2018-07-19T03:11:07.946Z,98031.66
2018-07-19T03:13:36.578Z,98028.39
2018-07-19T03:16:05.222Z,98030.55
2018-07-19T03:18:33.770Z,98031.64
2018-07-19T03:21:02.801Z,98028.68
2018-07-19T03:23:31.559Z,98034.07
2018-07-19T03:26:00.165Z,98032.73
2018-07-19T03:28:30.147Z,98036.22
2018-07-19T03:30:58.824Z,98037.55
2018-07-19T03:33:27.630Z,98041.87
2018-07-19T03:35:56.555Z,98048.10
2018-07-19T03:38:25.973Z,98045.12
2018-07-19T03:40:54.595Z,98045.91
2018-07-19T03:43:24.030Z,98044.86
2018-07-19T03:45:53.577Z,98047.82
2018-07-19T03:48:22.134Z,98044.59
2018-07-19T03:50:50.746Z,98049.99
2018-07-19T03:53:19.946Z,98044.63
2018-07-19T03:55:48.575Z,98043.02
2018-07-19T03:58:17.334Z,98058.64
2018-07-19T04:00:46.014Z,98053.02
2018-07-19T04:03:14.541Z,98055.16
2018-07-19T04:05:43.136Z,98061.35
2018-07-19T04:08:11.690Z,98064.61
2018-07-19T04:10:40.352Z,98062.16
2018-07-19T04:13:09.197Z,98061.89
2018-07-19T04:15:37.758Z,98061.88
2018-07-19T04:18:06.389Z,98063.22
2018-07-19T04:20:35.371Z,98062.70
2018-07-19T04:23:04.843Z,98072.66
2018-07-19T04:25:33.419Z,98073.47
2018-07-19T04:28:02.115Z,98070.23
2018-07-19T04:30:30.642Z,98074.53
2018-07-19T04:32:59.242Z,98073.17
2018-07-19T04:35:27.846Z,98076.39
2018-07-19T04:37:56.409Z,98074.80
2018-07-19T04:40:25.520Z,98078.25
2018-07-19T04:42:54.270Z,98077.95
2018-07-19T04:45:22.817Z,98083.87
2018-07-19T04:47:51.402Z,98085.20
2018-07-19T04:50:20.051Z,98081.13
2018-07-19T04:52:49.063Z,98085.44
2018-07-19T04:55:17.618Z,98083.77
2018-07-19T04:57:46.728Z,98082.08
2018-07-19T05:00:17.230Z,98087.71
2018-07-19T05:02:45.778Z,98089.06
2018-07-19T05:05:14.355Z,98088.75
2018-07-19T05:07:42.999Z,98085.97
2018-07-19T05:10:12.370Z,98085.86
2018-07-19T05:12:41.185Z,98087.16
2018-07-19T05:15:09.826Z,98084.41
2018-07-19T05:17:38.555Z,98091.12
2018-07-19T05:20:07.235Z,98094.32
2018-07-19T05:22:36.090Z,98088.56
2018-07-19T05:25:04.714Z,98088.53
2018-07-19T05:27:33.275Z,98091.68
2018-07-19T05:30:01.794Z,98094.81
2018-07-19T05:32:30.360Z,98083.70
2018-07-19T05:34:58.886Z,98088.34
2018-07-19T05:37:27.450Z,98087.35
2018-07-19T05:40:01.918Z,98090.23
2018-07-19T05:42:30.549Z,98092.94
2018-07-19T05:44:59.065Z,98093.94
2018-07-19T05:47:27.665Z,98088.23
2018-07-19T05:49:56.184Z,98085.33
2018-07-19T05:52:25.977Z,98089.35
2018-07-19T05:54:54.481Z,98089.35
2018-07-19T05:57:23.183Z,98092.28
2018-07-19T05:59:51.751Z,98090.53
2018-07-19T06:02:20.300Z,98096.77
2018-07-19T06:04:48.798Z,98096.30
2018-07-19T06:07:20.935Z,98094.83
2018-07-19T06:09:49.529Z,98095.22
2018-07-19T06:12:18.063Z,98090.48
2018-07-19T06:14:46.646Z,98094.85
2018-07-19T06:17:15.510Z,98092.53
2018-07-19T06:19:44.754Z,98094.98
2018-07-19T06:22:13.322Z,98105.53
2018-07-19T06:24:42.010Z,98110.28
2018-07-19T06:27:10.545Z,98101.70
2018-07-19T06:29:39.077Z,98102.80
2018-07-19T06:32:07.638Z,98102.92
2018-07-19T06:34:37.851Z,98099.37
2018-07-19T06:37:07.167Z,98107.23
2018-07-19T06:39:35.728Z,98104.52
2018-07-19T06:42:04.374Z,98109.79
2018-07-19T06:44:32.935Z,98112.02
2018-07-19T06:47:05.362Z,98111.56
2018-07-19T06:49:34.135Z,98111.72
2018-07-19T06:52:02.782Z,98109.88
2018-07-19T06:54:31.445Z,98107.93
2018-07-19T06:57:00.011Z,98115.03
2018-07-19T06:59:28.711Z,98111.05
2018-07-19T07:01:57.311Z,98105.98
2018-07-19T07:04:25.995Z,98105.84
2018-07-19T07:06:54.550Z,98100.77
2018-07-19T07:09:24.030Z,98105.41
2018-07-19T07:11:52.565Z,98102.99
2018-07-19T07:14:21.121Z,98108.35
2018-07-19T07:16:49.650Z,98106.85
2018-07-19T07:19:18.179Z,98107.84
2018-07-19T07:21:47.483Z,98108.86
2018-07-19T07:24:16.012Z,98102.43
2018-07-19T07:26:44.503Z,98104.59
2018-07-19T07:29:13.014Z,98100.83
2018-07-19T07:31:41.634Z,98096.01
2018-07-19T07:34:17.402Z,98109.52
2018-07-19T07:36:45.905Z,98106.58
2018-07-19T07:39:14.550Z,98106.64
2018-07-19T07:41:43.078Z,98099.83
2018-07-19T07:44:11.720Z,98100.00
2018-07-19T07:46:43.770Z,98098.31
2018-07-19T07:49:12.291Z,98107.20
2018-07-19T07:51:40.800Z,98101.43
2018-07-19T07:54:09.348Z,98107.70
2018-07-19T07:56:37.893Z,98098.22
2018-07-19T07:59:06.454Z,98102.37
2018-07-19T08:01:34.992Z,98091.30
2018-07-19T08:04:03.561Z,98097.78
2018-07-19T08:06:32.147Z,98085.30
2018-07-19T08:09:04.323Z,98093.41
2018-07-19T08:11:32.813Z,98094.42
2018-07-19T08:14:01.384Z,98096.10
2018-07-19T08:16:29.902Z,98090.44
2018-07-19T08:18:58.421Z,98087.81
2018-07-19T08:21:27.633Z,98091.27
2018-07-19T08:23:56.165Z,98095.48
2018-07-19T08:26:24.670Z,98091.32
2018-07-19T08:28:53.222Z,98094.80
2018-07-19T08:31:21.774Z,98094.45
2018-07-19T08:33:53.531Z,98094.61
2018-07-19T08:36:22.047Z,98092.33
2018-07-19T08:38:50.623Z,98086.16
2018-07-19T08:41:19.158Z,98087.41
2018-07-19T08:43:47.710Z,98083.05
2018-07-19T08:46:16.605Z,98083.88
2018-07-19T08:48:45.158Z,98076.94
2018-07-19T08:51:13.705Z,98077.01
2018-07-19T08:53:42.906Z,98087.73
2018-07-19T08:56:12.162Z,98081.30
2018-07-19T08:58:40.973Z,98084.57
2018-07-19T09:01:09.521Z,98088.11
2018-07-19T09:03:38.044Z,98080.14
2018-07-19T09:06:06.978Z,98084.23
2018-07-19T09:08:35.535Z,98073.25
2018-07-19T09:11:04.097Z,98085.70
2018-07-19T09:13:32.586Z,98081.72
2018-07-19T09:16:01.118Z,98081.59
2018-07-19T09:18:33.311Z,98086.98
2018-07-19T09:21:02.546Z,98082.68
2018-07-19T09:23:31.066Z,98085.05
2018-07-19T09:25:59.651Z,98077.34
2018-07-19T09:28:28.204Z,98083.30
2018-07-19T09:30:56.794Z,98077.95
2018-07-19T09:33:26.906Z,98059.80
2018-07-19T09:35:55.462Z,98071.37
2018-07-19T09:39:48.483Z,98068.95
2018-07-19T09:42:17.698Z,98063.16
2018-07-19T09:44:46.223Z,98056.98
2018-07-19T09:47:14.766Z,98052.80
2018-07-19T09:49:43.549Z,98059.27
2018-07-19T09:52:12.055Z,98055.43
2018-07-19T09:54:55.731Z,98052.72
2018-07-19T09:57:24.269Z,98046.16
2018-07-19T09:59:55.557Z,98061.70
2018-07-19T10:02:24.656Z,98056.70
2018-07-19T10:04:53.182Z,98042.30
2018-07-19T10:07:22.023Z,98036.62
2018-07-19T10:09:50.679Z,98045.03
2018-07-19T10:12:19.409Z,98045.66
2018-07-19T10:14:48.394Z,98036.72
2018-07-19T10:17:16.987Z,98045.23
2018-07-19T10:19:46.077Z,98041.48
2018-07-19T10:22:14.678Z,98038.23
2018-07-19T10:24:43.242Z,98043.70
2018-07-19T10:27:11.805Z,98038.52
2018-07-19T10:29:40.442Z,98037.16
2018-07-19T10:32:09.023Z,98028.63
2018-07-19T10:34:37.546Z,98030.86
2018-07-19T10:37:06.101Z,98023.52
2018-07-19T10:39:34.674Z,98030.48
2018-07-19T10:42:03.260Z,98025.67
2018-07-19T10:44:34.146Z,98025.31
2018-07-19T10:47:02.682Z,98020.95
2018-07-19T10:49:31.197Z,98022.52
2018-07-19T10:51:59.729Z,98024.80
2018-07-19T10:54:28.262Z,98020.88
2018-07-19T10:56:57.086Z,98020.91
2018-07-19T10:59:25.654Z,98016.44
2018-07-19T11:01:54.178Z,98014.29
2018-07-19T11:04:22.724Z,98017.93
2018-07-19T11:06:51.229Z,98021.11
2018-07-19T11:09:20.580Z,98015.52
2018-07-19T11:11:49.234Z,98017.10
2018-07-19T11:14:17.773Z,98011.39
2018-07-19T11:16:46.310Z,98010.70
2018-07-19T11:19:14.798Z,98008.44
2018-07-19T11:21:44.010Z,98004.39
2018-07-19T11:24:13.525Z,98008.59
2018-07-19T11:26:42.053Z,97994.53
2018-07-19T11:29:10.593Z,97991.46
2018-07-19T11:31:40.411Z,97992.57
2018-07-19T11:34:08.907Z,97992.34
2018-07-19T11:36:37.422Z,97997.05
2018-07-19T11:39:07.966Z,97998.71
2018-07-19T11:41:36.532Z,97998.42
2018-07-19T11:44:06.138Z,97989.99
2018-07-19T11:46:34.688Z,97991.55
2018-07-19T11:49:03.217Z,97990.88
2018-07-19T11:51:31.814Z,97984.79
2018-07-19T11:54:00.289Z,97981.45
2018-07-19T11:56:29.187Z,97984.15
2018-07-19T11:58:57.663Z,97983.77
2018-07-19T12:01:26.214Z,97987.76
2018-07-19T12:03:54.705Z,97979.41
2018-07-19T12:06:23.276Z,97974.98
2018-07-19T12:08:52.436Z,97980.61
2018-07-19T12:11:21.002Z,97976.85
2018-07-19T12:13:50.281Z,97972.30
2018-07-19T12:16:18.867Z,97974.41
2018-07-19T12:18:47.393Z,97969.17
2018-07-19T12:21:15.874Z,97970.59
2018-07-19T12:23:45.515Z,97976.08
2018-07-19T12:26:14.001Z,97970.40
2018-07-19T12:30:07.198Z,97969.89
2018-07-19T12:32:35.800Z,97970.95
2018-07-19T12:35:04.342Z,97971.48
2018-07-19T12:37:33.245Z,97962.95
2018-07-19T12:40:01.785Z,97966.63
2018-07-19T12:42:30.346Z,97965.93
2018-07-19T12:44:58.925Z,97961.31
2018-07-19T12:47:27.522Z,97964.48
2018-07-19T12:49:56.069Z,97956.55
2018-07-19T12:52:24.687Z,97956.99
2018-07-19T12:54:53.681Z,97953.18
2018-07-19T12:57:22.196Z,97956.23
2018-07-19T12:59:55.492Z,97952.42
2018-07-19T13:02:24.037Z,97939.93
2018-07-19T13:04:52.573Z,97945.34
2018-07-19T13:07:21.097Z,97943.91
2018-07-19T13:09:49.669Z,97938.13
2018-07-19T13:12:18.226Z,97940.23
2018-07-19T13:14:47.550Z,97944.61
2018-07-19T13:17:16.085Z,97934.95
2018-07-19T13:19:44.674Z,97932.75
2018-07-19T13:22:13.271Z,97937.31
2018-07-19T13:24:41.746Z,97929.17
2018-07-19T13:27:10.262Z,97922.23
2018-07-19T13:29:38.817Z,97929.78
2018-07-19T13:32:07.329Z,97925.45
2018-07-19T13:34:38.854Z,97937.14
2018-07-19T13:37:07.329Z,97931.58
2018-07-19T13:39:35.919Z,97923.25
2018-07-19T13:42:04.484Z,97924.62
2018-07-19T13:44:33.042Z,97923.28
2018-07-19T13:47:01.530Z,97918.77
2018-07-19T13:49:30.066Z,97912.50
2018-07-19T13:51:58.626Z,97908.75
2018-07-19T13:54:41.199Z,97914.73
2018-07-19T13:57:09.674Z,97912.48
2018-07-19T13:59:38.178Z,97907.79
2018-07-19T14:02:06.743Z,97901.92
2018-07-19T14:04:35.286Z,97904.78
2018-07-19T14:07:03.814Z,97901.64
2018-07-19T14:09:32.325Z,97900.13
2018-07-19T14:12:00.854Z,97901.61
2018-07-19T14:14:29.361Z,97901.75
2018-07-19T14:16:57.854Z,97894.53
2018-07-19T14:19:26.374Z,97901.80
2018-07-19T14:21:54.981Z,97899.27
2018-07-19T14:24:23.467Z,97895.70
2018-07-19T14:26:51.966Z,97893.05
2018-07-19T14:29:20.682Z,97892.28
2018-07-19T14:31:49.162Z,97893.59
2018-07-19T14:34:17.680Z,97893.45
2018-07-19T14:36:46.162Z,97890.73
2018-07-19T14:39:15.443Z,97891.30
2018-07-19T14:41:43.942Z,97885.84
2018-07-19T14:44:12.866Z,97882.96
2018-07-19T14:46:42.097Z,97880.45
2018-07-19T14:49:10.557Z,97879.19
2018-07-19T14:51:39.074Z,97872.06
2018-07-19T14:54:07.550Z,97878.91
2018-07-19T14:56:36.096Z,97876.28
2018-07-19T14:59:04.581Z,97880.89
2018-07-19T15:01:33.157Z,97873.30
2018-07-19T15:04:01.695Z,97878.55
2018-07-19T15:06:30.888Z,97875.58
2018-07-19T15:08:59.354Z,97869.13
2018-07-19T15:11:27.905Z,97868.05
2018-07-19T15:13:56.846Z,97871.66
2018-07-19T15:16:25.349Z,97858.19
2018-07-19T15:18:53.841Z,97853.38
2018-07-19T15:21:22.390Z,97853.40
2018-07-19T15:23:50.858Z,97853.59
2018-07-19T15:26:19.360Z,97838.67
2018-07-19T15:28:47.814Z,97842.49
2018-07-19T15:31:16.344Z,97840.13
2018-07-19T15:33:44.818Z,97843.47
2018-07-19T15:36:13.334Z,97832.28
2018-07-19T15:38:41.831Z,97829.89
2018-07-19T15:41:10.345Z,97829.56
2018-07-19T15:43:38.822Z,97832.19
2018-07-19T15:46:14.851Z,97825.64
2018-07-19T15:48:43.309Z,97823.64
2018-07-19T15:51:11.806Z,97824.62
2018-07-19T15:53:40.269Z,97825.03
2018-07-19T15:56:08.775Z,97823.23
2018-07-19T15:58:37.883Z,97818.70
2018-07-19T16:01:06.417Z,97823.63
2018-07-19T16:03:34.907Z,97817.64
2018-07-19T16:06:03.394Z,97816.06
2018-07-19T16:08:31.894Z,97809.73
2018-07-19T16:11:00.366Z,97813.73
2018-07-19T16:13:28.853Z,97810.33
2018-07-19T16:15:57.333Z,97810.15
2018-07-19T16:18:25.834Z,97811.76
2018-07-19T16:20:54.315Z,97817.09
2018-07-19T16:23:22.817Z,97814.29
2018-07-19T16:25:51.423Z,97806.78
2018-07-19T16:28:19.892Z,97814.54
2018-07-19T16:30:48.373Z,97808.25
2018-07-19T16:33:16.971Z,97803.36
2018-07-19T16:35:49.182Z,97802.16
2018-07-19T16:38:17.652Z,97803.53
2018-07-19T16:40:46.662Z,97801.88
2018-07-19T16:43:15.178Z,97797.02
2018-07-19T16:45:43.660Z,97801.09
2018-07-19T16:48:13.583Z,97801.69
2018-07-19T16:50:42.059Z,97795.78
2018-07-19T16:53:10.567Z,97792.02
2018-07-19T16:55:39.059Z,97792.36
2018-07-19T16:58:07.578Z,97797.00
2018-07-19T17:00:36.046Z,97791.00
2018-07-19T17:03:04.558Z,97791.97
2018-07-19T17:05:33.031Z,97804.28
2018-07-19T17:08:01.546Z,97795.17
2018-07-19T17:10:30.112Z,97802.34
2018-07-19T17:12:59.454Z,97792.91
2018-07-19T17:15:27.919Z,97797.45
2018-07-19T17:17:56.430Z,97798.75
2018-07-19T17:20:24.918Z,97796.50
2018-07-19T17:22:53.426Z,97792.71
2018-07-19T17:25:22.837Z,97803.47
2018-07-19T17:27:51.342Z,97799.02
2018-07-19T17:30:19.819Z,97799.39
2018-07-19T17:32:48.334Z,97801.43
2018-07-19T17:35:16.806Z,97799.03
2018-07-19T17:37:46.005Z,97801.39
2018-07-19T17:40:14.474Z,97801.89
2018-07-19T17:42:43.085Z,97793.38
2018-07-19T17:45:11.591Z,97800.92
2018-07-19T17:47:40.085Z,97799.42
2018-07-19T17:50:09.082Z,97802.40
2018-07-19T17:52:37.565Z,97802.20
2018-07-19T17:55:06.026Z,97801.39
2018-07-19T17:57:34.557Z,97804.10
2018-07-19T18:00:03.102Z,97800.42
2018-07-19T18:02:31.585Z,97803.97
2018-07-19T18:05:00.082Z,97808.37
2018-07-19T18:07:28.550Z,97804.96
2018-07-19T18:09:57.085Z,97807.73
2018-07-19T18:12:25.541Z,97802.30
2018-07-19T18:14:54.070Z,97805.17
2018-07-19T18:17:22.558Z,97808.95
2018-07-19T18:19:51.982Z,97801.88
2018-07-19T18:22:20.671Z,97803.88
2018-07-19T18:24:49.174Z,97808.20
2018-07-19T18:27:17.654Z,97810.67
2018-07-19T18:29:46.163Z,97808.31
2018-07-19T18:32:14.662Z,97803.74
2018-07-19T18:34:43.162Z,97805.46
2018-07-19T18:37:11.646Z,97807.64
2018-07-19T18:39:40.197Z,97807.20
2018-07-19T18:42:21.054Z,97804.25
2018-07-19T18:44:49.624Z,97805.37
2018-07-19T18:47:18.109Z,97809.23
2018-07-19T18:49:46.622Z,97814.70
2018-07-19T18:52:15.105Z,97816.36
2018-07-19T18:54:45.538Z,97814.96
2018-07-19T18:57:14.034Z,97812.03
2018-07-19T18:59:42.535Z,97817.12
2018-07-19T19:02:11.330Z,97820.70
2018-07-19T19:04:39.843Z,97821.11
2018-07-19T19:07:08.397Z,97821.28
2018-07-19T19:09:40.409Z,97821.53
2018-07-19T19:12:08.922Z,97831.55
2018-07-19T19:14:37.410Z,97829.70
2018-07-19T19:17:06.130Z,97831.53
2018-07-19T19:19:34.622Z,97836.31
2018-07-19T19:22:06.850Z,97835.97
2018-07-19T19:24:35.359Z,97834.34
2018-07-19T19:27:03.831Z,97834.16
2018-07-19T19:29:32.334Z,97837.25
2018-07-19T19:32:00.833Z,97841.77
2018-07-19T19:34:34.755Z,97844.56
2018-07-19T19:37:03.252Z,97843.66
2018-07-19T19:39:31.753Z,97843.02
2018-07-19T19:42:00.242Z,97851.33
2018-07-19T19:44:28.744Z,97848.05
2018-07-19T19:46:57.218Z,97852.50
2018-07-19T19:49:25.717Z,97852.27
2018-07-19T19:51:54.198Z,97854.04
2018-07-19T19:54:22.749Z,97859.96
2018-07-19T19:56:54.623Z,97855.59
2018-07-19T19:59:23.175Z,97857.19
2018-07-19T20:01:51.710Z,97861.39
2018-07-19T20:04:20.234Z,97867.21
2018-07-19T20:06:48.705Z,97859.99
2018-07-19T20:09:17.239Z,97859.73
2018-07-19T20:11:45.715Z,97862.05
2018-07-19T20:14:14.226Z,97862.06
2018-07-19T20:16:42.694Z,97864.06
2018-07-19T20:19:16.614Z,97864.75
2018-07-19T20:21:45.105Z,97868.84
2018-07-19T20:24:13.643Z,97867.80
2018-07-19T20:26:42.163Z,97867.61
2018-07-19T20:29:11.336Z,97869.48
2018-07-19T20:31:41.756Z,97868.34
2018-07-19T20:34:10.286Z,97871.51
2018-07-19T20:36:38.843Z,97871.44
2018-07-19T20:39:07.885Z,97867.47
2018-07-19T20:41:36.604Z,97866.86
2018-07-19T20:44:05.177Z,97870.03
2018-07-19T20:46:33.742Z,97868.78
2018-07-19T20:49:02.517Z,97869.63
2018-07-19T20:51:34.925Z,97869.80
2018-07-19T20:54:03.438Z,97866.76
2018-07-19T20:56:31.985Z,97878.44
2018-07-19T20:59:00.453Z,97880.21
2018-07-19T21:01:29.185Z,97882.21
2018-07-19T21:03:57.681Z,97879.79
2018-07-19T21:06:26.186Z,97882.73
2018-07-19T21:08:54.686Z,97882.08
2018-07-19T21:11:23.237Z,97879.52
2018-07-19T21:13:51.751Z,97877.42
2018-07-19T21:16:20.265Z,97874.20
2018-07-19T21:18:48.761Z,97880.14
2018-07-19T21:21:17.261Z,97879.83
2018-07-19T21:23:47.294Z,97880.31
2018-07-19T21:26:15.893Z,97890.77
2018-07-19T21:28:44.345Z,97887.52
2018-07-19T21:31:12.887Z,97896.31
2018-07-19T21:33:41.382Z,97897.03
2018-07-19T21:36:09.914Z,97897.19
2018-07-19T21:38:38.469Z,97905.69
2018-07-19T21:41:07.029Z,97903.91
2018-07-19T21:43:35.538Z,97896.97
2018-07-19T21:46:04.163Z,97899.59
2018-07-19T21:48:32.657Z,97895.94
2018-07-19T21:51:01.250Z,97903.45
2018-07-19T21:53:41.942Z,97905.75
2018-07-19T21:56:10.535Z,97894.97
2018-07-19T21:58:39.026Z,97907.49
2018-07-19T22:01:10.329Z,97899.73
2018-07-19T22:03:39.234Z,97898.91
2018-07-19T22:06:08.231Z,97895.41
2018-07-19T22:08:36.744Z,97900.39
2018-07-19T22:11:05.334Z,97904.89
2018-07-19T22:13:33.833Z,97904.86
2018-07-19T22:16:02.379Z,97901.98
2018-07-19T22:18:30.929Z,97909.90
2018-07-19T22:20:59.907Z,97905.55
2018-07-19T22:23:28.459Z,97900.98
2018-07-19T22:25:58.570Z,97908.42
2018-07-19T22:28:27.017Z,97903.63
2018-07-19T22:30:55.630Z,97906.49
2018-07-19T22:33:24.186Z,97909.27
2018-07-19T22:35:52.782Z,97907.15
2018-07-19T22:38:33.562Z,97907.51
2018-07-19T22:41:02.065Z,97911.90
2018-07-19T22:43:30.578Z,97910.05
2018-07-19T22:45:59.145Z,97913.89
2018-07-19T22:48:27.906Z,97919.84
2018-07-19T22:50:56.462Z,97917.69
2018-07-19T22:53:25.006Z,97917.72
2018-07-19T22:55:53.834Z,97917.72
2018-07-19T22:58:22.418Z,97918.02
2018-07-19T23:00:54.641Z,97915.41
2018-07-19T23:03:23.474Z,97919.42
2018-07-19T23:05:52.004Z,97922.49
2018-07-19T23:08:20.566Z,97922.71
2018-07-19T23:10:49.134Z,97921.48
2018-07-19T23:13:23.413Z,97917.83
2018-07-19T23:15:51.979Z,97923.25
2018-07-19T23:18:20.870Z,97925.95
2018-07-19T23:20:49.499Z,97924.55
2018-07-19T23:23:18.037Z,97924.02
2018-07-19T23:25:46.582Z,97920.60
2018-07-19T23:28:15.225Z,97923.37
2018-07-19T23:30:43.805Z,97919.34
2018-07-19T23:33:12.478Z,97917.16
2018-07-19T23:35:45.874Z,97915.52
2018-07-19T23:38:18.441Z,97911.98
2018-07-19T23:40:49.166Z,97913.35
2018-07-19T23:43:23.723Z,97917.73
2018-07-19T23:45:57.755Z,97918.03
2018-07-19T23:48:26.414Z,97917.09
2018-07-19T23:50:55.015Z,97914.92
2018-07-19T23:53:23.589Z,97914.64
2018-07-19T23:55:52.526Z,97916.55
2018-07-19T23:58:21.159Z,97913.41
